sensor_id;sensor_type;location;lat;lon;timestamp;P1;durP1;ratioP1;P2;durP2;ratioP2
1412;SDS011;701;52.526;13.408;2023-06-24T00:02:03;17.67;;;8.75;;
1412;SDS011;701;52.526;13.408;2023-06-24T00:04:29;20.35;;;8.63;;
1412;SDS011;701;52.526;13.408;2023-06-24T00:06:55;14.63;;;8.43;;
1412;SDS011;701;52.526;13.408;2023-06-24T00:09:24;17.60;;;8.80;;
1412;SDS011;701;52.526;13.408;2023-06-24T00:11:53;16.05;;;9.20;;
1412;SDS011;701;52.526;13.408;2023-06-24T00:14:25;16.05;;;9.82;;
1412;SDS011;701;52.526;13.408;2023-06-24T00:16:52;16.05;;;9.40;;
1412;SDS011;701;52.526;13.408;2023-06-24T00:19:23;15.65;;;8.82;;
1412;SDS011;701;52.526;13.408;2023-06-24T00:21:50;18.30;;;9.67;;
1412;SDS011;701;52.526;13.408;2023-06-24T00:24:17;17.73;;;10.55;;
1412;SDS011;701;52.526;13.408;2023-06-24T00:26:50;22.45;;;10.45;;
1412;SDS011;701;52.526;13.408;2023-06-24T00:29:19;18.17;;;9.35;;
1412;SDS011;701;52.526;13.408;2023-06-24T00:31:45;21.60;;;9.97;;
1412;SDS011;701;52.526;13.408;2023-06-24T00:34:11;17.17;;;10.40;;
1412;SDS011;701;52.526;13.408;2023-06-24T00:36:36;17.87;;;10.10;;
1412;SDS011;701;52.526;13.408;2023-06-24T00:39:03;21.13;;;10.80;;
1412;SDS011;701;52.526;13.408;2023-06-24T00:41:33;19.25;;;10.57;;
1412;SDS011;701;52.526;13.408;2023-06-24T00:43:59;17.65;;;10.82;;
1412;SDS011;701;52.526;13.408;2023-06-24T00:46:26;20.33;;;11.38;;
1412;SDS011;701;52.526;13.408;2023-06-24T00:48:54;19.53;;;11.33;;
1412;SDS011;701;52.526;13.408;2023-06-24T00:51:20;22.70;;;12.30;;
1412;SDS011;701;52.526;13.408;2023-06-24T00:53:55;23.40;;;12.43;;
1412;SDS011;701;52.526;13.408;2023-06-24T00:56:28;24.05;;;12.55;;
1412;SDS011;701;52.526;13.408;2023-06-24T00:59:00;21.75;;;12.60;;
1412;SDS011;701;52.526;13.408;2023-06-24T01:01:28;24.00;;;12.83;;
1412;SDS011;701;52.526;13.408;2023-06-24T01:03:59;24.17;;;11.82;;
1412;SDS011;701;52.526;13.408;2023-06-24T01:06:26;23.17;;;12.50;;
1412;SDS011;701;52.526;13.408;2023-06-24T01:09:00;23.02;;;13.68;;
1412;SDS011;701;52.526;13.408;2023-06-24T01:11:27;21.35;;;12.27;;
1412;SDS011;701;52.526;13.408;2023-06-24T01:13:54;25.30;;;13.30;;
1412;SDS011;701;52.526;13.408;2023-06-24T01:16:42;21.35;;;12.60;;
1412;SDS011;701;52.526;13.408;2023-06-24T01:27:52;22.00;;;12.53;;
1412;SDS011;701;52.526;13.408;2023-06-24T01:31:06;21.65;;;11.77;;
1412;SDS011;701;52.526;13.408;2023-06-24T01:39:34;22.20;;;12.82;;
1412;SDS011;701;52.526;13.408;2023-06-24T01:42:13;20.40;;;11.97;;
1412;SDS011;701;52.526;13.408;2023-06-24T01:44:42;20.55;;;11.75;;
1412;SDS011;701;52.526;13.408;2023-06-24T01:47:10;21.42;;;12.48;;
1412;SDS011;701;52.526;13.408;2023-06-24T01:49:41;23.67;;;12.20;;
1412;SDS011;701;52.526;13.408;2023-06-24T01:52:09;24.98;;;12.45;;
1412;SDS011;701;52.526;13.408;2023-06-24T01:54:38;20.20;;;11.73;;
1412;SDS011;701;52.526;13.408;2023-06-24T01:57:07;20.15;;;11.93;;
1412;SDS011;701;52.526;13.408;2023-06-24T01:59:35;23.25;;;12.43;;
1412;SDS011;701;52.526;13.408;2023-06-24T02:02:05;22.20;;;12.43;;
1412;SDS011;701;52.526;13.408;2023-06-24T02:04:31;18.92;;;11.20;;
1412;SDS011;701;52.526;13.408;2023-06-24T02:07:01;20.00;;;10.97;;
1412;SDS011;701;52.526;13.408;2023-06-24T02:09:29;20.35;;;11.63;;
1412;SDS011;701;52.526;13.408;2023-06-24T02:11:57;21.08;;;12.20;;
1412;SDS011;701;52.526;13.408;2023-06-24T02:14:26;21.73;;;12.05;;
1412;SDS011;701;52.526;13.408;2023-06-24T02:16:54;20.75;;;12.00;;
1412;SDS011;701;52.526;13.408;2023-06-24T02:19:25;22.33;;;12.53;;
1412;SDS011;701;52.526;13.408;2023-06-24T02:21:56;23.27;;;11.48;;
1412;SDS011;701;52.526;13.408;2023-06-24T02:24:24;18.92;;;11.60;;
1412;SDS011;701;52.526;13.408;2023-06-24T02:26:53;23.08;;;12.38;;
1412;SDS011;701;52.526;13.408;2023-06-24T02:29:19;18.20;;;11.02;;
1412;SDS011;701;52.526;13.408;2023-06-24T02:31:48;19.80;;;11.20;;
1412;SDS011;701;52.526;13.408;2023-06-24T02:34:15;21.80;;;11.20;;
1412;SDS011;701;52.526;13.408;2023-06-24T02:36:41;19.55;;;11.55;;
1412;SDS011;701;52.526;13.408;2023-06-24T02:39:07;19.20;;;10.90;;
1412;SDS011;701;52.526;13.408;2023-06-24T02:41:32;19.97;;;11.10;;
1412;SDS011;701;52.526;13.408;2023-06-24T02:43:58;21.10;;;10.77;;
1412;SDS011;701;52.526;13.408;2023-06-24T02:46:25;19.37;;;10.17;;
1412;SDS011;701;52.526;13.408;2023-06-24T02:48:55;21.75;;;10.82;;
1412;SDS011;701;52.526;13.408;2023-06-24T02:51:23;19.13;;;11.25;;
1412;SDS011;701;52.526;13.408;2023-06-24T02:53:50;19.05;;;10.50;;
1412;SDS011;701;52.526;13.408;2023-06-24T02:56:20;17.00;;;10.10;;
1412;SDS011;701;52.526;13.408;2023-06-24T02:58:47;19.23;;;10.27;;
1412;SDS011;701;52.526;13.408;2023-06-24T03:01:21;19.13;;;9.82;;
1412;SDS011;701;52.526;13.408;2023-06-24T03:03:53;18.63;;;10.52;;
1412;SDS011;701;52.526;13.408;2023-06-24T03:06:19;20.00;;;10.57;;
1412;SDS011;701;52.526;13.408;2023-06-24T03:08:47;22.15;;;10.65;;
1412;SDS011;701;52.526;13.408;2023-06-24T03:11:16;18.23;;;9.90;;
1412;SDS011;701;52.526;13.408;2023-06-24T03:13:42;16.98;;;9.88;;
1412;SDS011;701;52.526;13.408;2023-06-24T03:16:19;21.33;;;9.80;;
1412;SDS011;701;52.526;13.408;2023-06-24T03:19:11;21.90;;;10.00;;
1412;SDS011;701;52.526;13.408;2023-06-24T03:21:37;16.57;;;9.67;;
1412;SDS011;701;52.526;13.408;2023-06-24T03:24:20;16.50;;;9.17;;
1412;SDS011;701;52.526;13.408;2023-06-24T03:26:48;15.52;;;9.10;;
1412;SDS011;701;52.526;13.408;2023-06-24T03:29:21;15.43;;;9.57;;
1412;SDS011;701;52.526;13.408;2023-06-24T03:31:59;20.50;;;9.48;;
1412;SDS011;701;52.526;13.408;2023-06-24T03:34:26;15.68;;;8.65;;
1412;SDS011;701;52.526;13.408;2023-06-24T03:36:52;17.60;;;9.10;;
1412;SDS011;701;52.526;13.408;2023-06-24T03:39:22;15.10;;;9.23;;
1412;SDS011;701;52.526;13.408;2023-06-24T03:41:49;21.52;;;9.30;;
1412;SDS011;701;52.526;13.408;2023-06-24T03:44:15;16.23;;;9.13;;
1412;SDS011;701;52.526;13.408;2023-06-24T03:46:40;16.27;;;9.13;;
1412;SDS011;701;52.526;13.408;2023-06-24T03:49:08;15.30;;;9.40;;
1412;SDS011;701;52.526;13.408;2023-06-24T03:51:34;16.88;;;8.82;;
1412;SDS011;701;52.526;13.408;2023-06-24T03:54:00;15.87;;;8.83;;
1412;SDS011;701;52.526;13.408;2023-06-24T03:56:26;15.77;;;8.35;;
1412;SDS011;701;52.526;13.408;2023-06-24T03:58:52;17.38;;;8.70;;
1412;SDS011;701;52.526;13.408;2023-06-24T04:01:18;14.33;;;8.20;;
1412;SDS011;701;52.526;13.408;2023-06-24T04:03:44;17.95;;;8.68;;
1412;SDS011;701;52.526;13.408;2023-06-24T04:06:10;14.70;;;8.45;;
1412;SDS011;701;52.526;13.408;2023-06-24T04:08:36;15.57;;;8.50;;
1412;SDS011;701;52.526;13.408;2023-06-24T04:11:05;13.93;;;8.27;;
1412;SDS011;701;52.526;13.408;2023-06-24T04:13:32;15.48;;;8.30;;
1412;SDS011;701;52.526;13.408;2023-06-24T04:15:58;13.27;;;8.35;;
1412;SDS011;701;52.526;13.408;2023-06-24T04:18:24;13.98;;;8.48;;
1412;SDS011;701;52.526;13.408;2023-06-24T04:20:50;15.60;;;8.63;;
1412;SDS011;701;52.526;13.408;2023-06-24T04:23:16;13.60;;;8.32;;
1412;SDS011;701;52.526;13.408;2023-06-24T04:25:42;15.68;;;7.97;;
1412;SDS011;701;52.526;13.408;2023-06-24T04:28:08;21.17;;;8.50;;
1412;SDS011;701;52.526;13.408;2023-06-24T04:30:34;18.85;;;8.73;;
1412;SDS011;701;52.526;13.408;2023-06-24T04:33:08;19.55;;;8.70;;
1412;SDS011;701;52.526;13.408;2023-06-24T04:35:34;17.33;;;7.83;;
1412;SDS011;701;52.526;13.408;2023-06-24T04:38:03;15.07;;;8.50;;
1412;SDS011;701;52.526;13.408;2023-06-24T04:40:29;20.08;;;8.43;;
1412;SDS011;701;52.526;13.408;2023-06-24T04:42:55;13.80;;;7.60;;
1412;SDS011;701;52.526;13.408;2023-06-24T04:45:21;17.38;;;8.52;;
1412;SDS011;701;52.526;13.408;2023-06-24T04:47:47;16.70;;;8.70;;
1412;SDS011;701;52.526;13.408;2023-06-24T04:50:12;15.15;;;8.32;;
1412;SDS011;701;52.526;13.408;2023-06-24T04:52:39;13.77;;;7.80;;
1412;SDS011;701;52.526;13.408;2023-06-24T04:55:05;16.02;;;8.10;;
1412;SDS011;701;52.526;13.408;2023-06-24T04:57:31;17.48;;;8.10;;
1412;SDS011;701;52.526;13.408;2023-06-24T04:59:59;15.00;;;8.20;;
1412;SDS011;701;52.526;13.408;2023-06-24T05:02:25;18.80;;;7.80;;
1412;SDS011;701;52.526;13.408;2023-06-24T05:04:53;15.38;;;7.88;;
1412;SDS011;701;52.526;13.408;2023-06-24T05:07:19;15.15;;;7.28;;
1412;SDS011;701;52.526;13.408;2023-06-24T05:09:48;14.10;;;7.60;;
1412;SDS011;701;52.526;13.408;2023-06-24T05:12:14;12.05;;;6.93;;
1412;SDS011;701;52.526;13.408;2023-06-24T05:14:40;14.73;;;7.38;;
1412;SDS011;701;52.526;13.408;2023-06-24T05:17:06;14.93;;;7.90;;
1412;SDS011;701;52.526;13.408;2023-06-24T05:19:32;16.55;;;7.20;;
1412;SDS011;701;52.526;13.408;2023-06-24T05:21:57;15.60;;;7.20;;
1412;SDS011;701;52.526;13.408;2023-06-24T05:24:23;17.70;;;7.80;;
1412;SDS011;701;52.526;13.408;2023-06-24T05:26:50;14.57;;;8.10;;
1412;SDS011;701;52.526;13.408;2023-06-24T05:29:16;15.50;;;7.77;;
1412;SDS011;701;52.526;13.408;2023-06-24T05:31:42;11.63;;;7.20;;
1412;SDS011;701;52.526;13.408;2023-06-24T05:34:08;19.42;;;6.47;;
1412;SDS011;701;52.526;13.408;2023-06-24T05:36:34;13.83;;;6.67;;
1412;SDS011;701;52.526;13.408;2023-06-24T05:38:59;15.35;;;7.50;;
1412;SDS011;701;52.526;13.408;2023-06-24T05:41:25;17.00;;;7.30;;
1412;SDS011;701;52.526;13.408;2023-06-24T05:44:12;12.82;;;6.85;;
1412;SDS011;701;52.526;13.408;2023-06-24T05:46:37;13.18;;;6.85;;
1412;SDS011;701;52.526;13.408;2023-06-24T05:49:03;13.93;;;7.00;;
1412;SDS011;701;52.526;13.408;2023-06-24T05:51:29;16.20;;;7.20;;
1412;SDS011;701;52.526;13.408;2023-06-24T05:53:54;10.85;;;6.43;;
1412;SDS011;701;52.526;13.408;2023-06-24T05:56:21;14.53;;;6.50;;
1412;SDS011;701;52.526;13.408;2023-06-24T05:58:50;18.23;;;7.03;;
1412;SDS011;701;52.526;13.408;2023-06-24T06:01:15;12.40;;;6.28;;
1412;SDS011;701;52.526;13.408;2023-06-24T06:03:41;12.77;;;6.27;;
1412;SDS011;701;52.526;13.408;2023-06-24T06:06:07;12.10;;;5.70;;
1412;SDS011;701;52.526;13.408;2023-06-24T06:08:33;10.70;;;5.78;;
1412;SDS011;701;52.526;13.408;2023-06-24T06:10:59;13.53;;;6.00;;
1412;SDS011;701;52.526;13.408;2023-06-24T06:13:27;10.55;;;6.00;;
1412;SDS011;701;52.526;13.408;2023-06-24T06:15:54;11.85;;;6.13;;
1412;SDS011;701;52.526;13.408;2023-06-24T06:18:20;13.27;;;6.45;;
1412;SDS011;701;52.526;13.408;2023-06-24T06:20:46;14.93;;;6.10;;
1412;SDS011;701;52.526;13.408;2023-06-24T06:23:11;11.88;;;6.20;;
1412;SDS011;701;52.526;13.408;2023-06-24T06:25:37;14.43;;;6.17;;
1412;SDS011;701;52.526;13.408;2023-06-24T06:28:04;15.27;;;6.05;;
1412;SDS011;701;52.526;13.408;2023-06-24T06:30:30;11.10;;;6.20;;
1412;SDS011;701;52.526;13.408;2023-06-24T06:32:56;12.48;;;6.50;;
1412;SDS011;701;52.526;13.408;2023-06-24T06:35:21;14.67;;;6.03;;
1412;SDS011;701;52.526;13.408;2023-06-24T06:37:47;12.38;;;6.65;;
1412;SDS011;701;52.526;13.408;2023-06-24T06:40:20;12.23;;;6.90;;
1412;SDS011;701;52.526;13.408;2023-06-24T06:42:46;12.17;;;6.40;;
1412;SDS011;701;52.526;13.408;2023-06-24T06:45:12;13.30;;;5.63;;
1412;SDS011;701;52.526;13.408;2023-06-24T06:47:38;10.05;;;5.47;;
1412;SDS011;701;52.526;13.408;2023-06-24T06:50:04;10.07;;;4.80;;
1412;SDS011;701;52.526;13.408;2023-06-24T06:52:31;11.20;;;5.43;;
1412;SDS011;701;52.526;13.408;2023-06-24T06:54:56;10.48;;;5.35;;
1412;SDS011;701;52.526;13.408;2023-06-24T06:57:23;9.40;;;4.65;;
1412;SDS011;701;52.526;13.408;2023-06-24T06:59:50;12.30;;;5.05;;
1412;SDS011;701;52.526;13.408;2023-06-24T07:02:19;10.80;;;5.20;;
1412;SDS011;701;52.526;13.408;2023-06-24T07:04:45;10.75;;;5.30;;
1412;SDS011;701;52.526;13.408;2023-06-24T07:07:13;8.35;;;5.18;;
1412;SDS011;701;52.526;13.408;2023-06-24T07:09:39;10.55;;;4.75;;
1412;SDS011;701;52.526;13.408;2023-06-24T07:12:05;10.10;;;5.17;;
1412;SDS011;701;52.526;13.408;2023-06-24T07:14:31;11.00;;;4.75;;
1412;SDS011;701;52.526;13.408;2023-06-24T07:16:57;10.20;;;5.35;;
1412;SDS011;701;52.526;13.408;2023-06-24T07:19:23;8.03;;;4.97;;
1412;SDS011;701;52.526;13.408;2023-06-24T07:21:49;13.48;;;4.78;;
1412;SDS011;701;52.526;13.408;2023-06-24T07:24:14;11.37;;;5.10;;
1412;SDS011;701;52.526;13.408;2023-06-24T07:26:40;11.15;;;4.90;;
1412;SDS011;701;52.526;13.408;2023-06-24T07:29:06;11.17;;;5.00;;
1412;SDS011;701;52.526;13.408;2023-06-24T07:31:33;7.72;;;4.35;;
1412;SDS011;701;52.526;13.408;2023-06-24T07:33:59;8.55;;;4.57;;
1412;SDS011;701;52.526;13.408;2023-06-24T07:36:25;10.35;;;4.93;;
1412;SDS011;701;52.526;13.408;2023-06-24T07:38:50;13.37;;;4.67;;
1412;SDS011;701;52.526;13.408;2023-06-24T07:41:16;9.48;;;4.70;;
1412;SDS011;701;52.526;13.408;2023-06-24T07:43:42;8.93;;;3.90;;
1412;SDS011;701;52.526;13.408;2023-06-24T07:46:08;9.45;;;4.03;;
1412;SDS011;701;52.526;13.408;2023-06-24T07:48:34;8.20;;;4.25;;
1412;SDS011;701;52.526;13.408;2023-06-24T07:50:59;7.70;;;3.90;;
1412;SDS011;701;52.526;13.408;2023-06-24T07:53:25;6.43;;;3.75;;
1412;SDS011;701;52.526;13.408;2023-06-24T07:55:51;8.37;;;4.13;;
1412;SDS011;701;52.526;13.408;2023-06-24T07:58:17;8.05;;;4.32;;
1412;SDS011;701;52.526;13.408;2023-06-24T08:00:44;6.35;;;3.70;;
1412;SDS011;701;52.526;13.408;2023-06-24T08:03:11;8.80;;;4.30;;
1412;SDS011;701;52.526;13.408;2023-06-24T08:05:38;8.43;;;4.23;;
1412;SDS011;701;52.526;13.408;2023-06-24T08:08:06;6.82;;;4.07;;
1412;SDS011;701;52.526;13.408;2023-06-24T08:10:33;9.82;;;4.22;;
1412;SDS011;701;52.526;13.408;2023-06-24T08:12:59;8.07;;;4.40;;
1412;SDS011;701;52.526;13.408;2023-06-24T08:15:24;6.20;;;3.90;;
1412;SDS011;701;52.526;13.408;2023-06-24T08:17:53;6.43;;;3.80;;
1412;SDS011;701;52.526;13.408;2023-06-24T08:20:20;9.52;;;4.43;;
1412;SDS011;701;52.526;13.408;2023-06-24T08:22:48;6.33;;;3.90;;
1412;SDS011;701;52.526;13.408;2023-06-24T08:25:13;7.05;;;4.30;;
1412;SDS011;701;52.526;13.408;2023-06-24T08:34:16;7.23;;;4.30;;
1412;SDS011;701;52.526;13.408;2023-06-24T08:36:42;6.97;;;3.90;;
1412;SDS011;701;52.526;13.408;2023-06-24T08:39:07;13.60;;;4.10;;
1412;SDS011;701;52.526;13.408;2023-06-24T08:41:34;6.60;;;4.35;;
1412;SDS011;701;52.526;13.408;2023-06-24T08:44:00;7.22;;;4.10;;
1412;SDS011;701;52.526;13.408;2023-06-24T08:46:27;6.07;;;4.38;;
1412;SDS011;701;52.526;13.408;2023-06-24T08:52:03;6.65;;;4.15;;
1412;SDS011;701;52.526;13.408;2023-06-24T08:54:36;10.48;;;4.30;;
1412;SDS011;701;52.526;13.408;2023-06-24T08:57:04;6.35;;;4.20;;
1412;SDS011;701;52.526;13.408;2023-06-24T08:59:33;6.95;;;3.92;;
1412;SDS011;701;52.526;13.408;2023-06-24T09:02:00;6.73;;;4.23;;
1412;SDS011;701;52.526;13.408;2023-06-24T09:04:27;6.88;;;3.70;;
1412;SDS011;701;52.526;13.408;2023-06-24T09:06:53;8.38;;;4.25;;
1412;SDS011;701;52.526;13.408;2023-06-24T09:09:22;7.55;;;4.05;;
1412;SDS011;701;52.526;13.408;2023-06-24T09:11:58;7.18;;;3.97;;
1412;SDS011;701;52.526;13.408;2023-06-24T09:14:25;7.23;;;4.00;;
1412;SDS011;701;52.526;13.408;2023-06-24T09:16:57;8.13;;;4.25;;
1412;SDS011;701;52.526;13.408;2023-06-24T09:19:26;6.05;;;3.75;;
1412;SDS011;701;52.526;13.408;2023-06-24T09:22:03;7.75;;;3.92;;
1412;SDS011;701;52.526;13.408;2023-06-24T09:24:33;6.10;;;3.90;;
1412;SDS011;701;52.526;13.408;2023-06-24T09:26:59;7.03;;;3.97;;
1412;SDS011;701;52.526;13.408;2023-06-24T09:29:29;6.43;;;3.97;;
1412;SDS011;701;52.526;13.408;2023-06-24T09:31:57;6.93;;;3.80;;
1412;SDS011;701;52.526;13.408;2023-06-24T09:34:28;7.50;;;3.92;;
1412;SDS011;701;52.526;13.408;2023-06-24T09:36:57;5.70;;;3.72;;
1412;SDS011;701;52.526;13.408;2023-06-24T09:39:25;7.03;;;3.43;;
1412;SDS011;701;52.526;13.408;2023-06-24T09:41:54;6.80;;;3.78;;
1412;SDS011;701;52.526;13.408;2023-06-24T09:44:20;8.68;;;3.67;;
1412;SDS011;701;52.526;13.408;2023-06-24T09:46:46;9.38;;;4.05;;
1412;SDS011;701;52.526;13.408;2023-06-24T09:49:12;7.15;;;4.15;;
1412;SDS011;701;52.526;13.408;2023-06-24T09:51:39;7.40;;;3.50;;
1412;SDS011;701;52.526;13.408;2023-06-24T09:54:08;5.70;;;3.40;;
1412;SDS011;701;52.526;13.408;2023-06-24T09:56:36;6.25;;;3.70;;
1412;SDS011;701;52.526;13.408;2023-06-24T09:59:04;5.72;;;3.20;;
1412;SDS011;701;52.526;13.408;2023-06-24T10:01:31;5.40;;;2.47;;
1412;SDS011;701;52.526;13.408;2023-06-24T10:03:58;5.87;;;3.00;;
1412;SDS011;701;52.526;13.408;2023-06-24T10:06:25;7.38;;;2.90;;
1412;SDS011;701;52.526;13.408;2023-06-24T10:08:51;7.15;;;3.05;;
1412;SDS011;701;52.526;13.408;2023-06-24T10:11:18;7.40;;;3.50;;
1412;SDS011;701;52.526;13.408;2023-06-24T10:13:43;7.40;;;3.10;;
1412;SDS011;701;52.526;13.408;2023-06-24T10:16:09;7.40;;;2.85;;
1412;SDS011;701;52.526;13.408;2023-06-24T10:18:36;6.47;;;3.47;;
1412;SDS011;701;52.526;13.408;2023-06-24T10:21:03;6.10;;;3.00;;
1412;SDS011;701;52.526;13.408;2023-06-24T10:23:31;6.82;;;3.13;;
1412;SDS011;701;52.526;13.408;2023-06-24T10:26:08;5.40;;;3.07;;
1412;SDS011;701;52.526;13.408;2023-06-24T10:36:54;5.90;;;3.15;;
1412;SDS011;701;52.526;13.408;2023-06-24T10:39:37;6.07;;;2.83;;
1412;SDS011;701;52.526;13.408;2023-06-24T10:44:49;5.80;;;3.33;;
1412;SDS011;701;52.526;13.408;2023-06-24T10:47:16;7.43;;;3.20;;
1412;SDS011;701;52.526;13.408;2023-06-24T10:49:42;5.28;;;3.17;;
1412;SDS011;701;52.526;13.408;2023-06-24T10:52:11;5.90;;;3.40;;
1412;SDS011;701;52.526;13.408;2023-06-24T10:54:38;7.32;;;2.85;;
1412;SDS011;701;52.526;13.408;2023-06-24T10:57:05;6.72;;;3.13;;
1412;SDS011;701;52.526;13.408;2023-06-24T10:59:35;8.30;;;2.83;;
1412;SDS011;701;52.526;13.408;2023-06-24T11:02:08;7.32;;;3.38;;
1412;SDS011;701;52.526;13.408;2023-06-24T11:04:47;6.93;;;3.20;;
1412;SDS011;701;52.526;13.408;2023-06-24T11:07:15;5.63;;;2.83;;
1412;SDS011;701;52.526;13.408;2023-06-24T11:09:53;5.95;;;2.85;;
1412;SDS011;701;52.526;13.408;2023-06-24T11:12:24;7.37;;;3.30;;
1412;SDS011;701;52.526;13.408;2023-06-24T11:14:56;8.23;;;2.65;;
1412;SDS011;701;52.526;13.408;2023-06-24T11:17:24;7.15;;;3.15;;
1412;SDS011;701;52.526;13.408;2023-06-24T11:19:51;6.55;;;2.40;;
1412;SDS011;701;52.526;13.408;2023-06-24T11:22:21;8.52;;;3.10;;
1412;SDS011;701;52.526;13.408;2023-06-24T11:24:48;6.67;;;2.90;;
1412;SDS011;701;52.526;13.408;2023-06-24T11:27:13;6.43;;;3.15;;
1412;SDS011;701;52.526;13.408;2023-06-24T11:29:39;7.90;;;2.85;;
1412;SDS011;701;52.526;13.408;2023-06-24T11:32:08;6.30;;;3.80;;
1412;SDS011;701;52.526;13.408;2023-06-24T11:34:37;8.50;;;4.33;;
1412;SDS011;701;52.526;13.408;2023-06-24T11:37:13;6.13;;;3.13;;
1412;SDS011;701;52.526;13.408;2023-06-24T11:39:40;10.48;;;3.53;;
1412;SDS011;701;52.526;13.408;2023-06-24T11:42:06;6.22;;;3.83;;
1412;SDS011;701;52.526;13.408;2023-06-24T11:44:41;7.57;;;3.33;;
1412;SDS011;701;52.526;13.408;2023-06-24T11:47:08;6.07;;;3.03;;
1412;SDS011;701;52.526;13.408;2023-06-24T11:49:51;7.80;;;3.03;;
1412;SDS011;701;52.526;13.408;2023-06-24T11:52:18;6.13;;;3.08;;
1412;SDS011;701;52.526;13.408;2023-06-24T11:54:44;7.28;;;3.45;;
1412;SDS011;701;52.526;13.408;2023-06-24T11:57:10;5.93;;;3.30;;
1412;SDS011;701;52.526;13.408;2023-06-24T11:59:37;7.00;;;3.37;;
1412;SDS011;701;52.526;13.408;2023-06-24T12:02:03;8.95;;;3.10;;
1412;SDS011;701;52.526;13.408;2023-06-24T12:04:30;9.07;;;3.30;;
1412;SDS011;701;52.526;13.408;2023-06-24T12:06:56;8.05;;;3.53;;
1412;SDS011;701;52.526;13.408;2023-06-24T12:09:23;6.23;;;2.70;;
1412;SDS011;701;52.526;13.408;2023-06-24T12:11:48;7.15;;;3.70;;
1412;SDS011;701;52.526;13.408;2023-06-24T12:14:14;7.45;;;3.60;;
1412;SDS011;701;52.526;13.408;2023-06-24T12:16:40;6.17;;;3.13;;
1412;SDS011;701;52.526;13.408;2023-06-24T12:19:06;7.22;;;3.05;;
1412;SDS011;701;52.526;13.408;2023-06-24T12:21:33;7.28;;;3.50;;
1412;SDS011;701;52.526;13.408;2023-06-24T12:23:59;6.97;;;3.30;;
1412;SDS011;701;52.526;13.408;2023-06-24T12:26:24;6.60;;;3.07;;
1412;SDS011;701;52.526;13.408;2023-06-24T12:28:50;7.85;;;3.38;;
1412;SDS011;701;52.526;13.408;2023-06-24T12:31:19;8.03;;;3.30;;
1412;SDS011;701;52.526;13.408;2023-06-24T12:33:44;10.07;;;3.40;;
1412;SDS011;701;52.526;13.408;2023-06-24T12:36:10;6.20;;;3.30;;
1412;SDS011;701;52.526;13.408;2023-06-24T12:38:36;7.70;;;3.03;;
1412;SDS011;701;52.526;13.408;2023-06-24T12:41:01;5.57;;;2.70;;
1412;SDS011;701;52.526;13.408;2023-06-24T12:43:27;10.32;;;4.28;;
1412;SDS011;701;52.526;13.408;2023-06-24T12:45:53;7.15;;;2.80;;
1412;SDS011;701;52.526;13.408;2023-06-24T12:48:19;8.23;;;3.00;;
1412;SDS011;701;52.526;13.408;2023-06-24T12:50:44;10.50;;;3.10;;
1412;SDS011;701;52.526;13.408;2023-06-24T12:53:10;5.73;;;2.83;;
1412;SDS011;701;52.526;13.408;2023-06-24T12:55:38;7.28;;;3.03;;
1412;SDS011;701;52.526;13.408;2023-06-24T12:58:04;8.87;;;3.20;;
1412;SDS011;701;52.526;13.408;2023-06-24T13:00:29;6.35;;;3.03;;
1412;SDS011;701;52.526;13.408;2023-06-24T13:02:55;7.70;;;3.13;;
1412;SDS011;701;52.526;13.408;2023-06-24T13:05:21;7.47;;;3.10;;
1412;SDS011;701;52.526;13.408;2023-06-24T13:07:47;9.60;;;3.38;;
1412;SDS011;701;52.526;13.408;2023-06-24T13:10:12;6.70;;;3.00;;
1412;SDS011;701;52.526;13.408;2023-06-24T13:12:38;7.90;;;3.20;;
1412;SDS011;701;52.526;13.408;2023-06-24T13:15:05;6.82;;;3.05;;
1412;SDS011;701;52.526;13.408;2023-06-24T13:17:31;7.13;;;3.37;;
1412;SDS011;701;52.526;13.408;2023-06-24T13:19:57;8.65;;;3.25;;
1412;SDS011;701;52.526;13.408;2023-06-24T13:22:23;8.18;;;3.45;;
1412;SDS011;701;52.526;13.408;2023-06-24T13:24:49;12.68;;;3.45;;
1412;SDS011;701;52.526;13.408;2023-06-24T13:27:15;9.83;;;3.30;;
1412;SDS011;701;52.526;13.408;2023-06-24T13:29:42;10.73;;;3.40;;
1412;SDS011;701;52.526;13.408;2023-06-24T13:32:08;9.43;;;2.90;;
1412;SDS011;701;52.526;13.408;2023-06-24T13:34:34;7.28;;;3.15;;
1412;SDS011;701;52.526;13.408;2023-06-24T13:37:00;8.43;;;3.20;;
1412;SDS011;701;52.526;13.408;2023-06-24T13:39:26;7.20;;;3.10;;
1412;SDS011;701;52.526;13.408;2023-06-24T13:41:52;24.17;;;3.45;;
1412;SDS011;701;52.526;13.408;2023-06-24T13:44:18;7.55;;;3.25;;
1412;SDS011;701;52.526;13.408;2023-06-24T13:46:44;6.97;;;3.30;;
1412;SDS011;701;52.526;13.408;2023-06-24T13:49:10;7.93;;;3.05;;
1412;SDS011;701;52.526;13.408;2023-06-24T13:51:36;6.38;;;3.10;;
1412;SDS011;701;52.526;13.408;2023-06-24T13:54:02;6.80;;;2.90;;
1412;SDS011;701;52.526;13.408;2023-06-24T13:56:28;7.37;;;2.97;;
1412;SDS011;701;52.526;13.408;2023-06-24T13:58:54;6.88;;;3.08;;
1412;SDS011;701;52.526;13.408;2023-06-24T14:01:21;6.50;;;2.90;;
1412;SDS011;701;52.526;13.408;2023-06-24T14:03:48;7.38;;;3.10;;
1412;SDS011;701;52.526;13.408;2023-06-24T14:06:15;7.57;;;2.77;;
1412;SDS011;701;52.526;13.408;2023-06-24T14:08:43;8.30;;;3.10;;
1412;SDS011;701;52.526;13.408;2023-06-24T14:11:09;6.93;;;3.30;;
1412;SDS011;701;52.526;13.408;2023-06-24T14:13:35;6.15;;;3.10;;
1412;SDS011;701;52.526;13.408;2023-06-24T14:16:01;6.05;;;3.13;;
1412;SDS011;701;52.526;13.408;2023-06-24T14:18:28;9.27;;;3.30;;
1412;SDS011;701;52.526;13.408;2023-06-24T14:20:57;5.82;;;2.70;;
1412;SDS011;701;52.526;13.408;2023-06-24T14:23:26;6.05;;;3.13;;
1412;SDS011;701;52.526;13.408;2023-06-24T14:25:53;6.45;;;3.22;;
1412;SDS011;701;52.526;13.408;2023-06-24T14:28:19;6.18;;;3.10;;
1412;SDS011;701;52.526;13.408;2023-06-24T14:30:45;6.67;;;3.10;;
1412;SDS011;701;52.526;13.408;2023-06-24T14:33:11;8.10;;;3.10;;
1412;SDS011;701;52.526;13.408;2023-06-24T14:35:38;10.07;;;3.25;;
1412;SDS011;701;52.526;13.408;2023-06-24T14:38:04;7.20;;;3.00;;
1412;SDS011;701;52.526;13.408;2023-06-24T14:40:31;6.17;;;3.00;;
1412;SDS011;701;52.526;13.408;2023-06-24T14:42:57;6.80;;;3.50;;
1412;SDS011;701;52.526;13.408;2023-06-24T14:45:23;9.15;;;3.65;;
1412;SDS011;701;52.526;13.408;2023-06-24T14:47:48;7.47;;;3.50;;
1412;SDS011;701;52.526;13.408;2023-06-24T14:50:14;7.60;;;3.60;;
1412;SDS011;701;52.526;13.408;2023-06-24T14:52:40;6.40;;;3.13;;
1412;SDS011;701;52.526;13.408;2023-06-24T14:55:06;7.10;;;3.28;;
1412;SDS011;701;52.526;13.408;2023-06-24T14:57:32;7.22;;;3.28;;
1412;SDS011;701;52.526;13.408;2023-06-24T14:59:58;7.07;;;3.50;;
1412;SDS011;701;52.526;13.408;2023-06-24T15:02:23;6.88;;;3.47;;
1412;SDS011;701;52.526;13.408;2023-06-24T15:04:51;8.13;;;3.70;;
1412;SDS011;701;52.526;13.408;2023-06-24T15:07:17;12.43;;;6.00;;
1412;SDS011;701;52.526;13.408;2023-06-24T15:09:42;6.95;;;3.30;;
1412;SDS011;701;52.526;13.408;2023-06-24T15:12:08;6.72;;;3.40;;
1412;SDS011;701;52.526;13.408;2023-06-24T15:14:35;8.90;;;3.47;;
1412;SDS011;701;52.526;13.408;2023-06-24T15:17:01;8.07;;;3.80;;
1412;SDS011;701;52.526;13.408;2023-06-24T15:19:27;11.30;;;3.53;;
1412;SDS011;701;52.526;13.408;2023-06-24T15:21:53;9.17;;;3.77;;
1412;SDS011;701;52.526;13.408;2023-06-24T15:24:18;6.80;;;3.72;;
1412;SDS011;701;52.526;13.408;2023-06-24T15:26:44;7.57;;;3.20;;
1412;SDS011;701;52.526;13.408;2023-06-24T15:29:10;6.97;;;3.50;;
1412;SDS011;701;52.526;13.408;2023-06-24T15:31:36;6.57;;;3.53;;
1412;SDS011;701;52.526;13.408;2023-06-24T15:34:01;6.80;;;3.40;;
1412;SDS011;701;52.526;13.408;2023-06-24T15:36:27;6.45;;;3.50;;
1412;SDS011;701;52.526;13.408;2023-06-24T15:38:54;7.68;;;3.53;;
1412;SDS011;701;52.526;13.408;2023-06-24T15:41:20;7.13;;;3.60;;
1412;SDS011;701;52.526;13.408;2023-06-24T15:43:47;6.50;;;3.40;;